sensor_id;sensor_type;location;lat;lon;timestamp;pressure;altitude;pressure_sealevel;temperature;humidity
64521;BME280;50896;46.714;17.322;2023-04-29T00:00:43;100219.00;;;12.68;100.00
64521;BME280;50896;46.714;17.322;2023-04-29T00:03:09;100229.84;;;12.66;100.00
64521;BME280;50896;46.714;17.322;2023-04-29T00:05:37;100212.25;;;12.57;100.00
64521;BME280;50896;46.714;17.322;2023-04-29T00:08:04;100223.75;;;12.57;100.00
64521;BME280;50896;46.714;17.322;2023-04-29T00:10:31;100230.84;;;12.65;100.00
64521;BME280;50896;46.714;17.322;2023-04-29T00:12:58;100221.00;;;12.65;100.00
64521;BME280;50896;46.714;17.322;2023-04-29T00:15:25;100214.84;;;12.65;100.00
64521;BME280;50896;46.714;17.322;2023-04-29T00:17:51;100210.06;;;12.60;100.00
64521;BME280;50896;46.714;17.322;2023-04-29T00:20:18;100219.06;;;12.59;100.00
64521;BME280;50896;46.714;17.322;2023-04-29T00:22:45;100213.44;;;12.54;100.00
64521;BME280;50896;46.714;17.322;2023-04-29T00:25:12;100210.13;;;12.52;100.00
64521;BME280;50896;46.714;17.322;2023-04-29T00:27:39;100213.97;;;12.50;100.00
64521;BME280;50896;46.714;17.322;2023-04-29T00:30:06;100207.16;;;12.47;100.00
64521;BME280;50896;46.714;17.322;2023-04-29T00:32:34;100210.94;;;12.53;100.00
64521;BME280;50896;46.714;17.322;2023-04-29T00:35:01;100209.03;;;12.46;100.00
64521;BME280;50896;46.714;17.322;2023-04-29T00:37:28;100201.78;;;12.32;100.00
64521;BME280;50896;46.714;17.322;2023-04-29T00:39:54;100218.63;;;12.33;100.00
64521;BME280;50896;46.714;17.322;2023-04-29T00:42:21;100220.00;;;12.28;100.00
64521;BME280;50896;46.714;17.322;2023-04-29T00:44:48;100209.75;;;12.17;100.00
64521;BME280;50896;46.714;17.322;2023-04-29T00:47:15;100228.63;;;12.30;100.00
64521;BME280;50896;46.714;17.322;2023-04-29T00:49:42;100227.84;;;12.22;100.00
64521;BME280;50896;46.714;17.322;2023-04-29T00:52:10;100232.00;;;12.24;100.00
64521;BME280;50896;46.714;17.322;2023-04-29T00:54:38;100231.81;;;12.26;100.00
64521;BME280;50896;46.714;17.322;2023-04-29T00:57:05;100228.97;;;12.27;100.00
64521;BME280;50896;46.714;17.322;2023-04-29T00:59:32;100234.97;;;12.29;100.00
64521;BME280;50896;46.714;17.322;2023-04-29T01:02:01;100225.69;;;12.25;100.00
64521;BME280;50896;46.714;17.322;2023-04-29T01:04:29;100222.22;;;12.17;100.00
64521;BME280;50896;46.714;17.322;2023-04-29T01:07:14;100211.41;;;12.18;100.00
64521;BME280;50896;46.714;17.322;2023-04-29T01:12:25;100202.00;;;12.07;100.00
64521;BME280;50896;46.714;17.322;2023-04-29T01:15:21;100203.53;;;12.02;100.00
64521;BME280;50896;46.714;17.322;2023-04-29T01:17:59;100201.38;;;11.97;100.00
64521;BME280;50896;46.714;17.322;2023-04-29T01:20:30;100205.53;;;12.00;100.00
64521;BME280;50896;46.714;17.322;2023-04-29T01:22:58;100201.03;;;12.00;100.00
64521;BME280;50896;46.714;17.322;2023-04-29T01:25:25;100195.84;;;11.99;100.00
64521;BME280;50896;46.714;17.322;2023-04-29T01:31:09;100191.06;;;11.94;100.00
64521;BME280;50896;46.714;17.322;2023-04-29T01:33:43;100189.72;;;11.90;100.00
64521;BME280;50896;46.714;17.322;2023-04-29T01:41:56;100184.03;;;11.70;100.00
64521;BME280;50896;46.714;17.322;2023-04-29T01:44:29;100187.56;;;11.62;100.00
64521;BME280;50896;46.714;17.322;2023-04-29T01:46:57;100193.41;;;11.57;100.00
64521;BME280;50896;46.714;17.322;2023-04-29T01:49:34;100193.94;;;11.53;100.00
64521;BME280;50896;46.714;17.322;2023-04-29T01:52:01;100187.31;;;11.49;100.00
64521;BME280;50896;46.714;17.322;2023-04-29T01:54:29;100184.81;;;11.47;100.00
64521;BME280;50896;46.714;17.322;2023-04-29T01:56:57;100197.47;;;11.45;100.00
64521;BME280;50896;46.714;17.322;2023-04-29T01:59:42;100203.31;;;11.40;100.00
64521;BME280;50896;46.714;17.322;2023-04-29T02:02:27;100206.34;;;11.37;100.00
64521;BME280;50896;46.714;17.322;2023-04-29T02:05:02;100210.97;;;11.35;100.00
64521;BME280;50896;46.714;17.322;2023-04-29T02:07:29;100208.50;;;11.34;100.00
64521;BME280;50896;46.714;17.322;2023-04-29T02:09:56;100212.13;;;11.41;100.00
64521;BME280;50896;46.714;17.322;2023-04-29T02:12:23;100216.31;;;11.35;100.00
64521;BME280;50896;46.714;17.322;2023-04-29T02:14:53;100220.28;;;11.39;100.00
64521;BME280;50896;46.714;17.322;2023-04-29T02:17:20;100226.56;;;11.46;100.00
64521;BME280;50896;46.714;17.322;2023-04-29T02:19:47;100227.56;;;11.45;100.00
64521;BME280;50896;46.714;17.322;2023-04-29T02:22:14;100227.56;;;11.45;100.00
64521;BME280;50896;46.714;17.322;2023-04-29T02:24:41;100233.75;;;11.46;100.00
64521;BME280;50896;46.714;17.322;2023-04-29T02:27:07;100227.41;;;11.47;100.00
64521;BME280;50896;46.714;17.322;2023-04-29T02:29:35;100229.72;;;11.50;100.00
64521;BME280;50896;46.714;17.322;2023-04-29T02:32:02;100233.56;;;11.48;100.00
64521;BME280;50896;46.714;17.322;2023-04-29T02:34:30;100230.09;;;11.47;100.00
64521;BME280;50896;46.714;17.322;2023-04-29T02:36:58;100229.06;;;11.48;100.00
64521;BME280;50896;46.714;17.322;2023-04-29T02:39:25;100230.09;;;11.47;100.00
64521;BME280;50896;46.714;17.322;2023-04-29T02:41:54;100227.75;;;11.44;100.00
64521;BME280;50896;46.714;17.322;2023-04-29T02:44:22;100230.41;;;11.44;100.00
64521;BME280;50896;46.714;17.322;2023-04-29T02:46:48;100219.63;;;11.37;100.00
64521;BME280;50896;46.714;17.322;2023-04-29T02:49:15;100221.94;;;11.40;100.00
64521;BME280;50896;46.714;17.322;2023-04-29T02:51:42;100228.94;;;11.41;100.00
64521;BME280;50896;46.714;17.322;2023-04-29T02:54:10;100227.44;;;11.39;100.00
64521;BME280;50896;46.714;17.322;2023-04-29T02:56:37;100225.78;;;11.38;100.00
64521;BME280;50896;46.714;17.322;2023-04-29T02:59:04;100220.63;;;11.36;100.00
64521;BME280;50896;46.714;17.322;2023-04-29T03:01:31;100229.44;;;11.37;100.00
64521;BME280;50896;46.714;17.322;2023-04-29T03:03:57;100230.13;;;11.39;100.00
64521;BME280;50896;46.714;17.322;2023-04-29T03:06:24;100221.94;;;11.40;100.00
64521;BME280;50896;46.714;17.322;2023-04-29T03:08:52;100229.94;;;11.40;100.00
64521;BME280;50896;46.714;17.322;2023-04-29T03:11:19;100231.75;;;11.40;100.00
64521;BME280;50896;46.714;17.322;2023-04-29T03:13:46;100239.09;;;11.38;100.00
64521;BME280;50896;46.714;17.322;2023-04-29T03:16:13;100225.75;;;11.46;100.00
64521;BME280;50896;46.714;17.322;2023-04-29T03:18:43;100230.19;;;11.54;100.00
64521;BME280;50896;46.714;17.322;2023-04-29T03:21:10;100238.19;;;11.54;100.00
64521;BME280;50896;46.714;17.322;2023-04-29T03:23:37;100236.38;;;11.54;100.00
64521;BME280;50896;46.714;17.322;2023-04-29T03:26:09;100240.53;;;11.57;100.00
64521;BME280;50896;46.714;17.322;2023-04-29T03:28:36;100235.03;;;11.58;100.00
64521;BME280;50896;46.714;17.322;2023-04-29T03:31:03;100234.00;;;11.59;100.00
64521;BME280;50896;46.714;17.322;2023-04-29T03:33:30;100230.03;;;11.55;100.00
64521;BME280;50896;46.714;17.322;2023-04-29T03:35:56;100235.03;;;11.58;100.00
64521;BME280;50896;46.714;17.322;2023-04-29T03:38:39;100237.88;;;11.57;100.00
64521;BME280;50896;46.714;17.322;2023-04-29T03:41:06;100244.50;;;11.61;100.00
64521;BME280;50896;46.714;17.322;2023-04-29T03:43:33;100244.50;;;11.61;100.00
64521;BME280;50896;46.714;17.322;2023-04-29T03:46:00;100241.66;;;11.62;100.00
64521;BME280;50896;46.714;17.322;2023-04-29T03:48:27;100235.03;;;11.58;100.00
64521;BME280;50896;46.714;17.322;2023-04-29T03:50:54;100245.50;;;11.60;100.00
64521;BME280;50896;46.714;17.322;2023-04-29T03:53:21;100249.84;;;11.61;100.00
64521;BME280;50896;46.714;17.322;2023-04-29T03:55:48;100250.66;;;11.61;100.00
64521;BME280;50896;46.714;17.322;2023-04-29T03:58:15;100248.97;;;11.60;100.00
64521;BME280;50896;46.714;17.322;2023-04-29T04:00:42;100266.81;;;11.60;100.00
64521;BME280;50896;46.714;17.322;2023-04-29T04:03:16;100264.16;;;11.52;100.00
64521;BME280;50896;46.714;17.322;2023-04-29T04:05:43;100264.50;;;11.57;100.00
64521;BME280;50896;46.714;17.322;2023-04-29T04:08:13;100264.97;;;11.60;100.00
64521;BME280;50896;46.714;17.322;2023-04-29T04:10:43;100255.28;;;11.68;100.00
64521;BME280;50896;46.714;17.322;2023-04-29T04:13:29;100260.28;;;11.71;100.00
64521;BME280;50896;46.714;17.322;2023-04-29T04:15:56;100244.44;;;11.69;100.00
64521;BME280;50896;46.714;17.322;2023-04-29T04:18:23;100231.13;;;11.69;100.00
64521;BME280;50896;46.714;17.322;2023-04-29T04:20:50;100228.00;;;11.66;100.00
64521;BME280;50896;46.714;17.322;2023-04-29T04:23:17;100226.00;;;11.59;100.00
64521;BME280;50896;46.714;17.322;2023-04-29T04:25:48;100249.66;;;11.62;100.00
64521;BME280;50896;46.714;17.322;2023-04-29T04:28:33;100263.47;;;11.58;100.00
64521;BME280;50896;46.714;17.322;2023-04-29T04:31:05;100255.09;;;11.69;100.00
64521;BME280;50896;46.714;17.322;2023-04-29T04:33:33;100240.44;;;11.73;100.00
64521;BME280;50896;46.714;17.322;2023-04-29T04:36:00;100241.91;;;11.76;100.00
64521;BME280;50896;46.714;17.322;2023-04-29T04:38:27;100251.03;;;11.82;100.00
64521;BME280;50896;46.714;17.322;2023-04-29T04:40:54;100248.88;;;11.85;100.00
64521;BME280;50896;46.714;17.322;2023-04-29T04:43:27;100257.31;;;11.89;100.00
64521;BME280;50896;46.714;17.322;2023-04-29T04:45:54;100261.31;;;11.93;100.00
64521;BME280;50896;46.714;17.322;2023-04-29T04:48:21;100262.16;;;11.93;100.00
64521;BME280;50896;46.714;17.322;2023-04-29T04:50:49;100258.81;;;12.00;100.00
64521;BME280;50896;46.714;17.322;2023-04-29T04:53:16;100258.44;;;12.03;100.00
64521;BME280;50896;46.714;17.322;2023-04-29T04:55:49;100257.59;;;12.10;100.00
64521;BME280;50896;46.714;17.322;2023-04-29T04:58:16;100255.69;;;12.19;100.00
64521;BME280;50896;46.714;17.322;2023-04-29T05:00:44;100261.97;;;12.26;100.00
64521;BME280;50896;46.714;17.322;2023-04-29T05:03:11;100263.28;;;12.30;100.00
64521;BME280;50896;46.714;17.322;2023-04-29T05:05:38;100266.59;;;12.33;100.00
64521;BME280;50896;46.714;17.322;2023-04-29T05:08:05;100265.06;;;12.38;100.00
64521;BME280;50896;46.714;17.322;2023-04-29T05:10:43;100268.03;;;12.43;100.00
64521;BME280;50896;46.714;17.322;2023-04-29T05:13:11;100262.84;;;12.42;100.00
64521;BME280;50896;46.714;17.322;2023-04-29T05:15:38;100270.16;;;12.48;100.00
64521;BME280;50896;46.714;17.322;2023-04-29T05:18:07;100268.31;;;12.48;100.00
64521;BME280;50896;46.714;17.322;2023-04-29T05:20:33;100266.75;;;12.54;100.00
64521;BME280;50896;46.714;17.322;2023-04-29T05:23:01;100254.09;;;12.56;100.00
64521;BME280;50896;46.714;17.322;2023-04-29T05:25:32;100256.75;;;12.56;100.00
64521;BME280;50896;46.714;17.322;2023-04-29T05:27:59;100249.06;;;12.61;100.00
64521;BME280;50896;46.714;17.322;2023-04-29T05:30:28;100244.56;;;12.62;100.00
64521;BME280;50896;46.714;17.322;2023-04-29T05:32:55;100259.00;;;12.68;100.00
64521;BME280;50896;46.714;17.322;2023-04-29T05:35:22;100256.69;;;12.64;100.00
64521;BME280;50896;46.714;17.322;2023-04-29T05:37:49;100260.84;;;12.67;100.00
64521;BME280;50896;46.714;17.322;2023-04-29T05:40:27;100264.63;;;12.73;100.00
64521;BME280;50896;46.714;17.322;2023-04-29T05:43:08;100262.91;;;12.80;100.00
64521;BME280;50896;46.714;17.322;2023-04-29T05:45:36;100261.53;;;12.84;100.00
64521;BME280;50896;46.714;17.322;2023-04-29T05:48:03;100258.13;;;12.90;100.00
64521;BME280;50896;46.714;17.322;2023-04-29T05:50:38;100248.75;;;12.94;100.00
64521;BME280;50896;46.714;17.322;2023-04-29T05:53:05;100249.03;;;12.99;100.00
64521;BME280;50896;46.714;17.322;2023-04-29T05:55:33;100253.81;;;13.04;100.00
64521;BME280;50896;46.714;17.322;2023-04-29T05:58:00;100254.31;;;13.08;100.00
64521;BME280;50896;46.714;17.322;2023-04-29T06:00:27;100253.38;;;13.15;100.00
64521;BME280;50896;46.714;17.322;2023-04-29T06:03:02;100258.25;;;13.12;100.00
64521;BME280;50896;46.714;17.322;2023-04-29T06:05:30;100247.78;;;13.10;100.00
64521;BME280;50896;46.714;17.322;2023-04-29T06:08:33;100252.44;;;13.08;100.00
64521;BME280;50896;46.714;17.322;2023-04-29T06:11:13;100252.34;;;13.02;100.00
64521;BME280;50896;46.714;17.322;2023-04-29T06:13:40;100254.56;;;13.13;100.00
64521;BME280;50896;46.714;17.322;2023-04-29T06:16:08;100250.34;;;13.04;100.00
64521;BME280;50896;46.714;17.322;2023-04-29T06:18:35;100260.81;;;13.05;100.00
64521;BME280;50896;46.714;17.322;2023-04-29T06:21:01;100259.63;;;13.08;100.00
64521;BME280;50896;46.714;17.322;2023-04-29T06:23:28;100257.97;;;13.07;100.00
64521;BME280;50896;46.714;17.322;2023-04-29T06:25:57;100263.41;;;13.13;100.00
64521;BME280;50896;46.714;17.322;2023-04-29T06:28:24;100257.63;;;13.25;100.00
64521;BME280;50896;46.714;17.322;2023-04-29T06:30:51;100259.63;;;13.23;100.00
64521;BME280;50896;46.714;17.322;2023-04-29T06:33:18;100258.25;;;13.27;100.00
64521;BME280;50896;46.714;17.322;2023-04-29T06:35:45;100262.69;;;13.34;100.00
64521;BME280;50896;46.714;17.322;2023-04-29T06:38:32;100264.81;;;13.39;100.00
64521;BME280;50896;46.714;17.322;2023-04-29T06:41:25;100262.69;;;13.34;100.00
64521;BME280;50896;46.714;17.322;2023-04-29T06:44:21;100263.19;;;13.38;100.00
64521;BME280;50896;46.714;17.322;2023-04-29T06:47:01;100270.63;;;13.43;100.00
64521;BME280;50896;46.714;17.322;2023-04-29T06:49:51;100273.75;;;13.46;100.00
64521;BME280;50896;46.714;17.322;2023-04-29T06:52:20;100278.56;;;13.51;100.00
64521;BME280;50896;46.714;17.322;2023-04-29T06:54:47;100285.09;;;13.48;100.00
64521;BME280;50896;46.714;17.322;2023-04-29T06:57:14;100281.13;;;13.59;100.00
64521;BME280;50896;46.714;17.322;2023-04-29T06:59:44;100278.91;;;13.63;100.00
64521;BME280;50896;46.714;17.322;2023-04-29T07:02:11;100291.25;;;13.64;100.00
64521;BME280;50896;46.714;17.322;2023-04-29T07:04:39;100293.94;;;13.64;100.00
64521;BME280;50896;46.714;17.322;2023-04-29T07:07:07;100294.41;;;13.67;100.00
64521;BME280;50896;46.714;17.322;2023-04-29T07:09:33;100292.06;;;13.79;100.00
64521;BME280;50896;46.714;17.322;2023-04-29T07:12:03;100293.34;;;13.83;100.00
64521;BME280;50896;46.714;17.322;2023-04-29T07:14:30;100300.16;;;13.86;100.00
64521;BME280;50896;46.714;17.322;2023-04-29T07:16:57;100292.44;;;13.91;100.00
64521;BME280;50896;46.714;17.322;2023-04-29T07:19:25;100302.38;;;13.97;100.00
64521;BME280;50896;46.714;17.322;2023-04-29T07:21:51;100286.53;;;13.96;100.00
64521;BME280;50896;46.714;17.322;2023-04-29T07:24:18;100298.94;;;14.04;100.00
64521;BME280;50896;46.714;17.322;2023-04-29T07:26:45;100297.91;;;14.05;100.00
64521;BME280;50896;46.714;17.322;2023-04-29T07:29:14;100300.59;;;14.05;100.00
64521;BME280;50896;46.714;17.322;2023-04-29T07:31:41;100299.38;;;14.07;100.00
64521;BME280;50896;46.714;17.322;2023-04-29T07:34:08;100309.50;;;14.12;100.00
64521;BME280;50896;46.714;17.322;2023-04-29T07:36:35;100308.03;;;14.09;100.00
64521;BME280;50896;46.714;17.322;2023-04-29T07:39:02;100301.13;;;14.15;100.00
64521;BME280;50896;46.714;17.322;2023-04-29T07:41:30;100306.53;;;14.22;100.00
64521;BME280;50896;46.714;17.322;2023-04-29T07:43:57;100305.78;;;14.28;100.00
64521;BME280;50896;46.714;17.322;2023-04-29T07:46:24;100301.16;;;14.36;100.00
64521;BME280;50896;46.714;17.322;2023-04-29T07:48:51;100310.13;;;14.50;100.00
64521;BME280;50896;46.714;17.322;2023-04-29T07:51:18;100310.00;;;14.74;100.00
64521;BME280;50896;46.714;17.322;2023-04-29T07:53:45;100312.53;;;14.82;100.00
64521;BME280;50896;46.714;17.322;2023-04-29T07:56:11;100306.66;;;14.93;100.00
64521;BME280;50896;46.714;17.322;2023-04-29T07:58:39;100304.31;;;14.83;100.00
64521;BME280;50896;46.714;17.322;2023-04-29T08:01:09;100311.16;;;14.93;100.00
64521;BME280;50896;46.714;17.322;2023-04-29T08:03:38;100312.69;;;15.02;100.00
64521;BME280;50896;46.714;17.322;2023-04-29T08:06:08;100310.25;;;15.07;100.00
64521;BME280;50896;46.714;17.322;2023-04-29T08:08:35;100307.75;;;15.06;100.00
64521;BME280;50896;46.714;17.322;2023-04-29T08:11:02;100305.94;;;14.84;100.00
64521;BME280;50896;46.714;17.322;2023-04-29T08:13:30;100310.03;;;14.80;100.00
64521;BME280;50896;46.714;17.322;2023-04-29T08:15:57;100300.50;;;14.71;100.00
64521;BME280;50896;46.714;17.322;2023-04-29T08:18:24;100315.88;;;14.91;100.00
64521;BME280;50896;46.714;17.322;2023-04-29T08:20:50;100313.34;;;14.82;100.00
64521;BME280;50896;46.714;17.322;2023-04-29T08:23:17;100315.53;;;14.72;100.00
64521;BME280;50896;46.714;17.322;2023-04-29T08:25:44;100323.72;;;14.70;100.00
64521;BME280;50896;46.714;17.322;2023-04-29T08:28:11;100320.22;;;14.70;100.00
64521;BME280;50896;46.714;17.322;2023-04-29T08:30:41;100326.25;;;14.72;100.00
64521;BME280;50896;46.714;17.322;2023-04-29T08:33:08;100325.31;;;14.86;100.00
64521;BME280;50896;46.714;17.322;2023-04-29T08:35:35;100313.78;;;14.86;100.00
64521;BME280;50896;46.714;17.322;2023-04-29T08:38:05;100330.97;;;14.98;100.00
64521;BME280;50896;46.714;17.322;2023-04-29T08:40:41;100325.06;;;15.03;100.00
64521;BME280;50896;46.714;17.322;2023-04-29T08:43:09;100322.81;;;15.07;100.00
64521;BME280;50896;46.714;17.322;2023-04-29T08:45:36;100323.78;;;14.99;100.00
64521;BME280;50896;46.714;17.322;2023-04-29T08:48:04;100321.13;;;14.99;100.00
64521;BME280;50896;46.714;17.322;2023-04-29T08:50:41;100329.00;;;15.07;100.00
64521;BME280;50896;46.714;17.322;2023-04-29T08:53:09;100326.34;;;15.14;100.00
64521;BME280;50896;46.714;17.322;2023-04-29T08:55:42;100328.13;;;15.28;100.00
64521;BME280;50896;46.714;17.322;2023-04-29T08:58:09;100336.06;;;15.15;100.00
64521;BME280;50896;46.714;17.322;2023-04-29T09:00:38;100332.31;;;15.09;100.00
64521;BME280;50896;46.714;17.322;2023-04-29T09:03:26;100335.78;;;15.10;100.00
64521;BME280;50896;46.714;17.322;2023-04-29T09:05:58;100333.38;;;15.15;100.00
64521;BME280;50896;46.714;17.322;2023-04-29T09:08:26;100329.94;;;15.21;100.00
64521;BME280;50896;46.714;17.322;2023-04-29T09:10:54;100323.63;;;15.35;100.00
64521;BME280;50896;46.714;17.322;2023-04-29T09:13:26;100315.69;;;15.49;100.00
64521;BME280;50896;46.714;17.322;2023-04-29T09:15:54;100311.78;;;15.51;100.00
64521;BME280;50896;46.714;17.322;2023-04-29T09:18:45;100317.63;;;15.62;100.00
64521;BME280;50896;46.714;17.322;2023-04-29T09:21:18;100315.44;;;15.44;100.00
64521;BME280;50896;46.714;17.322;2023-04-29T09:23:50;100309.91;;;15.45;100.00
64521;BME280;50896;46.714;17.322;2023-04-29T09:26:18;100308.72;;;15.61;100.00
64521;BME280;50896;46.714;17.322;2023-04-29T09:28:45;100307.75;;;15.69;100.00
64521;BME280;50896;46.714;17.322;2023-04-29T09:31:13;100310.41;;;15.62;100.00
64521;BME280;50896;46.714;17.322;2023-04-29T09:33:51;100298.69;;;15.70;100.00
64521;BME280;50896;46.714;17.322;2023-04-29T09:39:09;100294.25;;;15.84;100.00
64521;BME280;50896;46.714;17.322;2023-04-29T09:44:07;100289.78;;;15.98;100.00
64521;BME280;50896;46.714;17.322;2023-04-29T09:46:35;100296.81;;;16.05;100.00
64521;BME280;50896;46.714;17.322;2023-04-29T09:49:02;100290.38;;;16.00;100.00
64521;BME280;50896;46.714;17.322;2023-04-29T09:51:51;100291.03;;;16.02;100.00
64521;BME280;50896;46.714;17.322;2023-04-29T09:54:25;100289.97;;;16.03;100.00
64521;BME280;50896;46.714;17.322;2023-04-29T09:56:56;100277.63;;;16.02;100.00
64521;BME280;50896;46.714;17.322;2023-04-29T09:59:23;100291.03;;;16.09;100.00
64521;BME280;50896;46.714;17.322;2023-04-29T10:01:55;100283.41;;;16.05;100.00
64521;BME280;50896;46.714;17.322;2023-04-29T10:04:26;100292.47;;;16.04;100.00
64521;BME280;50896;46.714;17.322;2023-04-29T10:06:54;100295.53;;;16.01;100.00
64521;BME280;50896;46.714;17.322;2023-04-29T10:09:22;100285.66;;;16.02;100.00
64521;BME280;50896;46.714;17.322;2023-04-29T10:11:51;100293.75;;;16.22;100.00
64521;BME280;50896;46.714;17.322;2023-04-29T10:14:22;100288.22;;;16.30;100.00
64521;BME280;50896;46.714;17.322;2023-04-29T10:17:02;100286.78;;;16.48;100.00
64521;BME280;50896;46.714;17.322;2023-04-29T10:22:03;100273.41;;;16.68;100.00
64521;BME280;50896;46.714;17.322;2023-04-29T10:24:31;100271.75;;;16.67;100.00
64521;BME280;50896;46.714;17.322;2023-04-29T10:27:01;100270.09;;;16.79;100.00
64521;BME280;50896;46.714;17.322;2023-04-29T10:29:29;100276.09;;;16.74;100.00
64521;BME280;50896;46.714;17.322;2023-04-29T10:31:57;100265.13;;;16.83;100.00
64521;BME280;50896;46.714;17.322;2023-04-29T10:34:25;100264.34;;;16.96;100.00
64521;BME280;50896;46.714;17.322;2023-04-29T10:36:53;100257.53;;;17.00;100.00
64521;BME280;50896;46.714;17.322;2023-04-29T10:39:46;100257.75;;;16.98;100.00
64521;BME280;50896;46.714;17.322;2023-04-29T10:42:27;100237.88;;;17.06;100.00
64521;BME280;50896;46.714;17.322;2023-04-29T10:45:16;100247.81;;;17.12;100.00
64521;BME280;50896;46.714;17.322;2023-04-29T10:50:33;100245.13;;;17.05;100.00
64521;BME280;50896;46.714;17.322;2023-04-29T10:53:01;100231.28;;;16.95;100.00
64521;BME280;50896;46.714;17.322;2023-04-29T10:55:29;100239.13;;;16.97;100.00
64521;BME280;50896;46.714;17.322;2023-04-29T10:57:56;100246.16;;;17.04;100.00
64521;BME280;50896;46.714;17.322;2023-04-29T11:00:28;100251.09;;;17.01;100.00
64521;BME280;50896;46.714;17.322;2023-04-29T11:02:59;100231.91;;;16.97;100.00
64521;BME280;50896;46.714;17.322;2023-04-29T11:05:30;100242.66;;;17.04;100.00
64521;BME280;50896;46.714;17.322;2023-04-29T11:08:12;100226.69;;;17.16;100.00
64521;BME280;50896;46.714;17.322;2023-04-29T11:10:42;100217.75;;;17.35;100.00
64521;BME280;50896;46.714;17.322;2023-04-29T11:13:25;100231.78;;;17.44;100.00
64521;BME280;50896;46.714;17.322;2023-04-29T11:16:03;100212.97;;;17.44;100.00
64521;BME280;50896;46.714;17.322;2023-04-29T11:18:31;100211.69;;;17.60;100.00
64521;BME280;50896;46.714;17.322;2023-04-29T11:23:30;100223.66;;;17.64;100.00
64521;BME280;50896;46.714;17.322;2023-04-29T11:25:57;100204.75;;;17.77;100.00
64521;BME280;50896;46.714;17.322;2023-04-29T11:28:26;100216.31;;;17.85;100.00
64521;BME280;50896;46.714;17.322;2023-04-29T11:30:53;100218.84;;;17.73;100.00
64521;BME280;50896;46.714;17.322;2023-04-29T11:33:23;100217.81;;;17.74;100.00
64521;BME280;50896;46.714;17.322;2023-04-29T11:35:50;100215.63;;;17.57;100.00
64521;BME280;50896;46.714;17.322;2023-04-29T11:38:23;100204.91;;;17.89;100.00
64521;BME280;50896;46.714;17.322;2023-04-29T11:40:50;100193.81;;;17.79;100.00
64521;BME280;50896;46.714;17.322;2023-04-29T11:43:18;100197.88;;;17.95;100.00
64521;BME280;50896;46.714;17.322;2023-04-29T11:45:46;100199.81;;;18.20;100.00
64521;BME280;50896;46.714;17.322;2023-04-29T11:48:17;100197.84;;;18.59;100.00
64521;BME280;50896;46.714;17.322;2023-04-29T11:50:46;100189.38;;;18.55;100.00
64521;BME280;50896;46.714;17.322;2023-04-29T11:53:14;100200.63;;;18.45;100.00
64521;BME280;50896;46.714;17.322;2023-04-29T11:55:41;100190.78;;;18.33;100.00
64521;BME280;50896;46.714;17.322;2023-04-29T11:58:09;100209.72;;;18.19;100.00
64521;BME280;50896;46.714;17.322;2023-04-29T12:00:36;100203.03;;;17.97;100.00
64521;BME280;50896;46.714;17.322;2023-04-29T12:03:16;100210.31;;;17.83;100.00
64521;BME280;50896;46.714;17.322;2023-04-29T12:05:50;100207.78;;;17.49;100.00
64521;BME280;50896;46.714;17.322;2023-04-29T12:08:21;100205.78;;;17.38;100.00
64521;BME280;50896;46.714;17.322;2023-04-29T12:10:48;100204.78;;;17.25;100.00
64521;BME280;50896;46.714;17.322;2023-04-29T12:13:16;100202.09;;;17.19;100.00
64521;BME280;50896;46.714;17.322;2023-04-29T12:15:44;100206.25;;;17.15;100.00
64521;BME280;50896;46.714;17.322;2023-04-29T12:18:13;100196.16;;;17.03;100.00
64521;BME280;50896;46.714;17.322;2023-04-29T12:20:40;100191.44;;;16.92;100.00
64521;BME280;50896;46.714;17.322;2023-04-29T12:23:16;100194.09;;;16.85;100.00
64521;BME280;50896;46.714;17.322;2023-04-29T12:25:58;100188.31;;;16.82;100.00
64521;BME280;50896;46.714;17.322;2023-04-29T12:28:26;100194.94;;;16.72;100.00
64521;BME280;50896;46.714;17.322;2023-04-29T12:30:53;100194.34;;;16.70;100.00
64521;BME280;50896;46.714;17.322;2023-04-29T12:33:25;100200.72;;;16.69;100.00
64521;BME280;50896;46.714;17.322;2023-04-29T12:35:56;100191.00;;;16.62;100.00
64521;BME280;50896;46.714;17.322;2023-04-29T12:38:29;100182.78;;;16.56;100.00
64521;BME280;50896;46.714;17.322;2023-04-29T12:41:00;100192.28;;;16.59;100.00
64521;BME280;50896;46.714;17.322;2023-04-29T12:43:28;100184.41;;;16.64;100.00
64521;BME280;50896;46.714;17.322;2023-04-29T12:46:02;100183.59;;;16.70;100.00
64521;BME280;50896;46.714;17.322;2023-04-29T12:48:31;100171.41;;;16.68;100.00
64521;BME280;50896;46.714;17.322;2023-04-29T12:51:00;100170.78;;;16.66;100.00
64521;BME280;50896;46.714;17.322;2023-04-29T12:53:31;100167.88;;;16.67;100.00
64521;BME280;50896;46.714;17.322;2023-04-29T12:55:58;100170.34;;;16.75;100.00
64521;BME280;50896;46.714;17.322;2023-04-29T12:58:29;100176.53;;;16.83;100.00
64521;BME280;50896;46.714;17.322;2023-04-29T13:00:56;100178.81;;;16.86;100.00
64521;BME280;50896;46.714;17.322;2023-04-29T13:03:24;100176.34;;;16.78;100.00
64521;BME280;50896;46.714;17.322;2023-04-29T13:05:52;100172.44;;;16.73;100.00
64521;BME280;50896;46.714;17.322;2023-04-29T13:08:20;100186.88;;;16.72;100.00